createdAt,value
2023-02-23T00:00:28.646Z,9.25
2023-02-23T00:03:01.870Z,9.33
2023-02-23T00:05:31.203Z,9.24
2023-02-23T00:07:57.977Z,9.26
2023-02-23T00:10:30.636Z,9.23
2023-02-23T00:13:00.308Z,9.23
2023-02-23T00:15:28.279Z,9.24
2023-02-23T00:17:58.735Z,9.35
2023-02-23T00:20:28.896Z,9.31
2023-02-23T00:22:57.377Z,9.29
2023-02-23T00:25:27.860Z,9.18
2023-02-23T00:27:54.938Z,9.21
2023-02-23T00:30:23.861Z,9.15
2023-02-23T00:32:53.809Z,9.19
2023-02-23T00:35:20.569Z,9.08
2023-02-23T00:37:49.753Z,9.09
2023-02-23T00:40:21.486Z,9.12
2023-02-23T00:42:52.205Z,9.01
2023-02-23T00:45:22.245Z,9.13
2023-02-23T00:47:52.447Z,8.95
2023-02-23T00:50:21.665Z,9.05
2023-02-23T00:52:51.431Z,9.05
2023-02-23T00:55:22.677Z,9.15
2023-02-23T00:57:49.352Z,9.06
2023-02-23T01:00:21.491Z,9.14
2023-02-23T01:02:55.837Z,9.20
2023-02-23T01:05:22.481Z,9.14
2023-02-23T01:07:51.630Z,9.15
2023-02-23T01:10:23.880Z,9.14
2023-02-23T01:12:53.941Z,9.12
2023-02-23T01:15:28.062Z,9.12
2023-02-23T01:17:54.786Z,9.01
2023-02-23T01:20:23.929Z,9.06
2023-02-23T01:22:58.996Z,9.09
2023-02-23T01:25:30.813Z,9.11
2023-02-23T01:28:01.935Z,9.11
2023-02-23T01:30:29.624Z,9.14
2023-02-23T01:33:02.629Z,9.09
2023-02-23T01:35:33.318Z,9.13
2023-02-23T01:38:05.115Z,9.15
2023-02-23T01:40:37.473Z,9.10
2023-02-23T01:43:14.944Z,9.03
2023-02-23T01:45:46.893Z,8.97
2023-02-23T01:48:26.747Z,8.88
2023-02-23T01:51:01.665Z,8.93
2023-02-23T01:53:38.978Z,8.87
2023-02-23T01:56:16.977Z,8.92
2023-02-23T01:58:51.949Z,8.93
2023-02-23T02:01:19.279Z,8.86
2023-02-23T02:03:49.783Z,8.84
2023-02-23T02:06:22.180Z,8.87
2023-02-23T02:08:56.915Z,8.92
2023-02-23T02:11:36.893Z,8.88
2023-02-23T02:14:12.978Z,8.98
2023-02-23T02:17:09.746Z,8.97
2023-02-23T02:19:55.396Z,8.90
2023-02-23T02:22:48.244Z,9.02
2023-02-23T02:25:48.414Z,8.93
2023-02-23T02:29:01.714Z,8.96
2023-02-23T02:31:42.182Z,9.02
2023-02-23T02:34:24.198Z,9.04
2023-02-23T02:37:12.108Z,9.02
2023-02-23T02:40:21.383Z,9.03
2023-02-23T02:42:57.183Z,8.99
2023-02-23T02:45:41.404Z,9.02
2023-02-23T02:48:31.229Z,8.99
2023-02-23T02:51:09.438Z,8.82
2023-02-23T02:53:57.422Z,8.96
2023-02-23T02:56:28.653Z,9.01
2023-02-23T02:58:56.072Z,8.99
2023-02-23T03:01:44.098Z,8.99
2023-02-23T03:04:40.450Z,8.94
2023-02-23T03:07:41.371Z,8.93
2023-02-23T03:10:39.083Z,8.98
2023-02-23T03:13:25.068Z,9.01
2023-02-23T03:16:37.836Z,9.04
2023-02-23T03:19:36.711Z,8.95
2023-02-23T03:22:40.518Z,9.02
2023-02-23T03:25:31.062Z,9.00
2023-02-23T03:28:38.011Z,8.92
2023-02-23T03:31:36.937Z,8.98
2023-02-23T03:34:41.208Z,8.99
2023-02-23T03:37:39.724Z,8.84
2023-02-23T03:40:50.151Z,8.97
2023-02-23T03:43:43.804Z,8.98
2023-02-23T03:46:32.793Z,8.97
2023-02-23T03:49:22.717Z,8.79
2023-02-23T03:52:19.846Z,8.79
2023-02-23T03:55:19.640Z,8.71
2023-02-23T03:58:19.828Z,8.69
2023-02-23T04:01:09.116Z,8.72
2023-02-23T04:03:59.092Z,8.65
2023-02-23T04:06:48.563Z,8.63
2023-02-23T04:09:36.295Z,8.56
2023-02-23T04:12:37.591Z,8.44
2023-02-23T04:15:18.960Z,8.35
2023-02-23T04:17:48.603Z,8.35
2023-02-23T04:20:18.316Z,8.26
2023-02-23T04:22:47.580Z,8.16
2023-02-23T04:25:18.074Z,8.30
2023-02-23T04:27:47.343Z,8.22
2023-02-23T04:30:14.195Z,8.10
2023-02-23T04:32:46.189Z,8.04
2023-02-23T04:35:13.627Z,7.97
2023-02-23T04:37:40.407Z,7.88
2023-02-23T04:40:10.374Z,7.86
2023-02-23T04:42:39.422Z,7.93
2023-02-23T04:45:09.327Z,7.91
2023-02-23T04:47:35.998Z,7.81
2023-02-23T04:50:03.075Z,7.76
2023-02-23T04:52:31.462Z,7.90
2023-02-23T04:54:58.275Z,7.92
2023-02-23T04:57:30.240Z,7.73
2023-02-23T04:59:56.877Z,7.75
2023-02-23T05:02:25.776Z,7.77
2023-02-23T05:04:54.952Z,7.66
2023-02-23T05:07:24.371Z,7.72
2023-02-23T05:09:53.357Z,7.71
2023-02-23T05:12:22.250Z,7.71
2023-02-23T05:14:53.755Z,7.60
2023-02-23T05:17:25.376Z,7.55
2023-02-23T05:19:56.946Z,7.52
2023-02-23T05:22:26.172Z,7.59
2023-02-23T05:24:58.139Z,7.57
2023-02-23T05:27:27.003Z,7.53
2023-02-23T05:29:53.748Z,7.56
2023-02-23T05:32:20.413Z,7.52
2023-02-23T05:34:49.256Z,7.36
2023-02-23T05:37:19.015Z,7.35
2023-02-23T05:39:48.174Z,7.39
2023-02-23T05:42:14.836Z,7.38
2023-02-23T05:44:46.107Z,7.28
2023-02-23T05:47:15.287Z,7.40
2023-02-23T05:49:46.192Z,7.33
2023-02-23T05:52:12.916Z,7.39
2023-02-23T05:54:39.577Z,7.24
2023-02-23T05:57:06.260Z,7.19
2023-02-23T05:59:35.402Z,7.26
2023-02-23T06:02:09.967Z,7.33
2023-02-23T06:04:39.155Z,7.25
2023-02-23T06:07:08.129Z,7.08
2023-02-23T06:09:44.106Z,7.21
2023-02-23T06:12:11.249Z,7.14
2023-02-23T06:14:40.568Z,7.25
2023-02-23T06:17:07.877Z,7.23
2023-02-23T06:19:41.542Z,7.25
2023-02-23T06:22:11.195Z,7.16
2023-02-23T06:24:42.794Z,7.18
2023-02-23T06:27:12.217Z,7.17
2023-02-23T06:29:38.890Z,7.15
2023-02-23T06:32:05.926Z,7.13
2023-02-23T06:34:38.369Z,7.06
2023-02-23T06:37:09.758Z,7.08
2023-02-23T06:39:36.385Z,7.03
2023-02-23T06:42:05.312Z,7.21
2023-02-23T06:44:35.487Z,7.20
2023-02-23T06:47:06.221Z,7.22
2023-02-23T06:49:37.087Z,7.23
2023-02-23T06:52:03.795Z,7.36
2023-02-23T06:54:35.182Z,7.27
2023-02-23T06:57:04.357Z,7.35
2023-02-23T06:59:39.318Z,7.42
2023-02-23T07:02:09.808Z,7.41
2023-02-23T07:04:39.538Z,7.38
2023-02-23T07:07:09.050Z,7.61
2023-02-23T07:09:40.504Z,7.60
2023-02-23T07:12:10.040Z,7.61
2023-02-23T07:14:39.496Z,7.69
2023-02-23T07:17:06.170Z,7.77
2023-02-23T07:19:35.188Z,7.76
2023-02-23T07:22:02.052Z,7.89
2023-02-23T07:24:28.664Z,7.84
2023-02-23T07:26:59.997Z,7.86
2023-02-23T07:29:28.296Z,8.00
2023-02-23T07:31:59.475Z,7.98
2023-02-23T07:34:28.492Z,7.94
2023-02-23T07:36:58.027Z,8.21
2023-02-23T07:39:25.694Z,8.20
2023-02-23T07:41:57.785Z,8.21
2023-02-23T07:44:24.450Z,8.22
2023-02-23T07:46:53.549Z,8.34
2023-02-23T07:49:20.454Z,8.30
2023-02-23T07:51:49.334Z,8.39
2023-02-23T07:54:22.006Z,8.46
2023-02-23T07:56:48.631Z,8.46
2023-02-23T07:59:15.387Z,8.54
2023-02-23T08:01:44.499Z,8.61
2023-02-23T08:04:11.166Z,8.59
2023-02-23T08:06:37.947Z,8.68
2023-02-23T08:09:05.592Z,8.67
2023-02-23T08:11:32.362Z,8.62
2023-02-23T08:14:03.769Z,8.79
2023-02-23T08:16:34.101Z,8.84
2023-02-23T08:19:01.548Z,8.83
2023-02-23T08:21:31.395Z,8.97
2023-02-23T08:24:00.565Z,8.99
2023-02-23T08:26:27.411Z,9.03
2023-02-23T08:28:57.986Z,9.07
2023-02-23T08:31:27.847Z,9.11
2023-02-23T08:33:54.562Z,9.17
2023-02-23T08:36:23.637Z,9.17
2023-02-23T08:38:54.329Z,9.27
2023-02-23T08:41:23.536Z,9.24
2023-02-23T08:43:55.214Z,9.31
2023-02-23T08:46:22.402Z,9.25
2023-02-23T08:48:52.522Z,9.30
2023-02-23T08:51:22.153Z,9.34
2023-02-23T08:53:48.858Z,9.42
2023-02-23T08:56:18.077Z,9.38
2023-02-23T08:58:44.913Z,9.45
2023-02-23T09:01:24.508Z,9.55
2023-02-23T09:03:53.689Z,9.56
2023-02-23T09:06:25.552Z,9.53
2023-02-23T09:08:58.159Z,9.65
2023-02-23T09:11:27.826Z,9.67
2023-02-23T09:13:57.009Z,9.67
2023-02-23T09:16:25.150Z,9.74
2023-02-23T09:18:51.989Z,9.73
2023-02-23T09:21:25.438Z,9.77
2023-02-23T09:23:56.237Z,9.72
2023-02-23T09:26:24.095Z,9.86
2023-02-23T09:28:53.680Z,9.84
2023-02-23T09:31:22.841Z,9.85
2023-02-23T09:33:51.432Z,9.81
2023-02-23T09:36:21.999Z,9.91
2023-02-23T09:38:57.190Z,9.94
2023-02-23T09:41:26.302Z,9.96
2023-02-23T09:44:12.023Z,10.02
2023-02-23T09:46:51.457Z,10.02
2023-02-23T09:49:23.361Z,10.06
2023-02-23T09:51:57.576Z,10.06
2023-02-23T09:54:34.709Z,10.12
2023-02-23T09:57:14.542Z,10.16
2023-02-23T09:59:41.570Z,10.11
2023-02-23T10:02:22.819Z,10.16
2023-02-23T10:05:14.630Z,10.24
2023-02-23T10:08:02.613Z,10.26
2023-02-23T10:10:48.165Z,10.26
2023-02-23T10:13:48.836Z,10.32
2023-02-23T10:16:31.473Z,10.35
2023-02-23T10:19:15.859Z,10.40
2023-02-23T10:21:51.678Z,10.42
2023-02-23T10:24:27.847Z,10.44
2023-02-23T10:26:58.325Z,10.50
2023-02-23T10:29:33.909Z,10.40
2023-02-23T10:32:08.813Z,10.55
2023-02-23T10:34:40.892Z,10.56
2023-02-23T10:37:12.138Z,10.57
2023-02-23T10:39:41.950Z,10.53
2023-02-23T10:42:19.734Z,10.57
2023-02-23T10:44:53.239Z,10.61
2023-02-23T10:47:28.719Z,10.68
2023-02-23T10:49:58.703Z,10.72
2023-02-23T10:52:41.546Z,10.76
2023-02-23T10:55:32.217Z,10.75
2023-02-23T10:58:05.945Z,10.77
2023-02-23T11:00:40.442Z,10.72
2023-02-23T11:03:50.035Z,10.79
2023-02-23T11:06:40.617Z,10.83
2023-02-23T11:09:46.501Z,10.83
2023-02-23T11:12:36.436Z,10.86
2023-02-23T11:15:32.112Z,10.89
2023-02-23T11:18:08.867Z,10.83
2023-02-23T11:20:44.451Z,10.90
2023-02-23T11:23:20.359Z,10.95
2023-02-23T11:25:55.856Z,10.96
2023-02-23T11:28:33.390Z,10.98
2023-02-23T11:31:20.883Z,11.01
2023-02-23T11:33:56.799Z,10.94
2023-02-23T11:36:26.790Z,11.06
2023-02-23T11:39:20.023Z,11.07
2023-02-23T11:42:05.992Z,11.08
2023-02-23T11:44:35.654Z,11.06
2023-02-23T11:47:16.787Z,11.15
2023-02-23T11:49:45.832Z,11.18
2023-02-23T11:52:19.676Z,11.14
2023-02-23T11:54:57.219Z,11.21
2023-02-23T11:57:28.326Z,11.20
2023-02-23T11:59:57.749Z,11.22
2023-02-23T12:02:35.324Z,11.23
2023-02-23T12:05:24.268Z,11.26
2023-02-23T12:08:19.074Z,11.29
2023-02-23T12:10:58.811Z,11.32
2023-02-23T12:13:34.914Z,11.34
2023-02-23T12:16:06.442Z,11.33
2023-02-23T12:18:50.742Z,11.36
2023-02-23T12:21:39.968Z,11.39
2023-02-23T12:24:34.378Z,11.44
2023-02-23T12:27:04.274Z,11.45
2023-02-23T12:29:59.404Z,11.36
2023-02-23T12:32:45.806Z,11.38
2023-02-23T12:35:19.260Z,11.48
2023-02-23T12:37:59.223Z,11.53
2023-02-23T12:40:35.445Z,11.55
2023-02-23T12:43:18.309Z,11.60
2023-02-23T12:46:10.940Z,11.64
2023-02-23T12:49:02.883Z,11.67
2023-02-23T12:51:38.415Z,11.70
2023-02-23T12:54:11.701Z,11.64
2023-02-23T12:56:57.307Z,11.70
2023-02-23T12:59:42.782Z,11.67
2023-02-23T13:02:22.849Z,11.70
2023-02-23T13:05:13.182Z,11.74
2023-02-23T13:08:04.765Z,11.78
2023-02-23T13:10:50.449Z,11.80
2023-02-23T13:13:20.757Z,11.83
2023-02-23T13:16:06.612Z,11.87
2023-02-23T13:18:47.479Z,11.89
2023-02-23T13:21:20.233Z,11.89
2023-02-23T13:23:57.240Z,11.93
2023-02-23T13:26:42.554Z,11.93
2023-02-23T13:29:15.179Z,11.96
2023-02-23T13:31:43.398Z,11.88
2023-02-23T13:34:17.275Z,11.96
2023-02-23T13:36:50.849Z,11.96
2023-02-23T13:39:25.960Z,11.98
2023-02-23T13:42:27.120Z,11.95
2023-02-23T13:45:22.821Z,11.91
2023-02-23T13:48:06.594Z,11.88
2023-02-23T13:50:47.588Z,11.87
2023-02-23T13:53:57.791Z,11.98
2023-02-23T13:56:27.902Z,11.91
2023-02-23T13:59:00.536Z,11.98
2023-02-23T14:01:36.251Z,11.98
2023-02-23T14:04:18.586Z,12.00
2023-02-23T14:07:03.369Z,11.95
2023-02-23T14:09:57.456Z,11.98
2023-02-23T14:12:24.020Z,12.01
2023-02-23T14:14:50.858Z,11.97
2023-02-23T14:17:20.402Z,12.07
2023-02-23T14:19:56.586Z,12.10
2023-02-23T14:22:23.531Z,12.05
2023-02-23T14:25:28.868Z,12.11
2023-02-23T14:28:01.599Z,12.10
2023-02-23T14:30:49.941Z,12.01
2023-02-23T14:33:55.959Z,12.11
2023-02-23T14:36:22.522Z,12.11
2023-02-23T14:38:52.114Z,12.14
2023-02-23T14:41:43.501Z,12.15
2023-02-23T14:44:31.201Z,12.17
2023-02-23T14:47:03.487Z,12.13
2023-02-23T14:49:38.978Z,12.12
2023-02-23T14:52:14.517Z,12.13
2023-02-23T14:54:43.911Z,12.17
2023-02-23T14:57:19.037Z,12.22
2023-02-23T15:00:00.187Z,12.19
2023-02-23T15:02:29.619Z,12.18
2023-02-23T15:04:56.793Z,12.17
2023-02-23T15:07:38.752Z,12.22
2023-02-23T15:10:22.483Z,12.21
2023-02-23T15:12:49.315Z,12.20
2023-02-23T15:15:23.514Z,12.20
2023-02-23T15:17:53.498Z,12.14
2023-02-23T15:20:32.743Z,12.23
2023-02-23T15:23:03.588Z,12.21
2023-02-23T15:25:39.036Z,12.23
2023-02-23T15:28:20.829Z,12.22
2023-02-23T15:30:54.975Z,12.23
2023-02-23T15:33:28.339Z,12.18
2023-02-23T15:36:24.359Z,12.20
2023-02-23T15:39:00.145Z,12.16
2023-02-23T15:41:44.151Z,12.15
2023-02-23T15:44:32.144Z,12.15
2023-02-23T15:47:06.056Z,12.16
2023-02-23T15:49:37.133Z,12.13
2023-02-23T15:52:14.773Z,12.12
2023-02-23T15:54:54.638Z,12.03
2023-02-23T15:57:30.234Z,12.10
2023-02-23T15:59:59.226Z,12.11
2023-02-23T16:02:29.784Z,12.06
2023-02-23T16:05:11.746Z,12.02
2023-02-23T16:07:43.146Z,12.06
2023-02-23T16:10:23.170Z,11.97
2023-02-23T16:12:53.069Z,11.99
2023-02-23T16:15:25.915Z,11.92
2023-02-23T16:18:02.220Z,11.96
2023-02-23T16:20:41.728Z,11.74
2023-02-23T16:23:35.642Z,11.96
2023-02-23T16:26:10.926Z,11.90
2023-02-23T16:28:45.904Z,11.87
2023-02-23T16:31:27.115Z,11.86
2023-02-23T16:34:00.114Z,11.86
2023-02-23T16:36:40.292Z,11.76
2023-02-23T16:39:12.189Z,11.84
2023-02-23T16:41:39.213Z,11.78
2023-02-23T16:44:18.453Z,11.84
2023-02-23T16:46:54.091Z,11.84
2023-02-23T16:49:23.453Z,11.77
2023-02-23T16:51:55.892Z,11.78
2023-02-23T16:54:24.830Z,11.82
2023-02-23T16:56:55.594Z,11.69
2023-02-23T16:59:23.477Z,11.73
2023-02-23T17:01:51.061Z,11.67
2023-02-23T17:04:21.136Z,11.67
2023-02-23T17:06:57.965Z,11.73
2023-02-23T17:09:27.757Z,11.67
2023-02-23T17:11:57.950Z,11.65
2023-02-23T17:14:28.207Z,11.75
2023-02-23T17:16:57.201Z,11.73
2023-02-23T17:19:26.305Z,11.68
2023-02-23T17:21:56.446Z,11.65
2023-02-23T17:24:26.381Z,11.58
2023-02-23T17:26:55.684Z,11.69
2023-02-23T17:29:22.793Z,11.58
2023-02-23T17:31:49.855Z,11.64
2023-02-23T17:34:19.112Z,11.65
2023-02-23T17:36:45.814Z,11.56
2023-02-23T17:39:17.522Z,11.50
2023-02-23T17:41:44.474Z,11.52
2023-02-23T17:44:11.615Z,11.45
2023-02-23T17:46:38.571Z,11.32
2023-02-23T17:49:07.978Z,11.32
2023-02-23T17:51:34.730Z,11.28
2023-02-23T17:54:07.373Z,11.26
2023-02-23T17:56:34.454Z,11.20
2023-02-23T17:59:01.760Z,11.10
2023-02-23T18:01:32.354Z,11.04
2023-02-23T18:04:00.293Z,11.07
2023-02-23T18:06:34.281Z,10.95
2023-02-23T18:09:01.278Z,11.03
2023-02-23T18:11:34.998Z,11.00
2023-02-23T18:14:06.371Z,10.91
2023-02-23T18:16:35.386Z,10.91
2023-02-23T18:19:08.758Z,10.91
2023-02-23T18:21:41.727Z,10.84
2023-02-23T18:24:08.598Z,10.62
2023-02-23T18:26:37.864Z,10.69
2023-02-23T18:29:07.085Z,10.65
2023-02-23T18:31:34.886Z,10.65
2023-02-23T18:34:06.594Z,10.51
2023-02-23T18:36:36.318Z,10.51
2023-02-23T18:39:08.604Z,10.44
2023-02-23T18:41:35.570Z,10.35
2023-02-23T18:44:07.553Z,10.30
2023-02-23T18:46:40.149Z,9.97
2023-02-23T18:49:19.002Z,10.10
2023-02-23T18:51:49.279Z,10.12
2023-02-23T18:54:18.929Z,9.88
2023-02-23T18:56:47.459Z,9.93
2023-02-23T18:59:15.248Z,9.93
2023-02-23T19:01:45.515Z,9.87
2023-02-23T19:04:12.772Z,9.78
2023-02-23T19:06:45.944Z,9.68
2023-02-23T19:09:14.638Z,9.58
2023-02-23T19:11:43.148Z,9.50
2023-02-23T19:14:19.859Z,9.44
2023-02-23T19:16:47.815Z,9.45
2023-02-23T19:19:16.267Z,9.40
2023-02-23T19:21:43.333Z,9.40
2023-02-23T19:24:13.069Z,9.41
2023-02-23T19:26:40.647Z,9.40
2023-02-23T19:29:12.651Z,9.37
2023-02-23T19:31:43.020Z,9.27
2023-02-23T19:34:10.933Z,9.14
2023-02-23T19:36:38.140Z,8.97
2023-02-23T19:39:10.960Z,8.87
2023-02-23T19:41:40.136Z,8.90
2023-02-23T19:44:07.499Z,8.90
2023-02-23T19:46:35.292Z,8.87
2023-02-23T19:49:03.040Z,8.85
2023-02-23T19:51:32.563Z,8.85
2023-02-23T19:53:59.846Z,8.78
2023-02-23T19:56:28.172Z,8.74
2023-02-23T19:58:59.649Z,8.78
2023-02-23T20:01:30.350Z,8.76
2023-02-23T20:04:02.473Z,8.62
2023-02-23T20:06:34.680Z,8.65
2023-02-23T20:09:05.287Z,8.62
2023-02-23T20:11:33.105Z,8.58
2023-02-23T20:14:00.630Z,8.49
2023-02-23T20:16:31.755Z,8.47
2023-02-23T20:19:00.823Z,8.47
2023-02-23T20:21:30.718Z,8.36
2023-02-23T20:23:59.270Z,8.31
2023-02-23T20:26:30.048Z,8.28
2023-02-23T20:28:58.350Z,8.18
2023-02-23T20:31:32.571Z,7.88
2023-02-23T20:34:06.180Z,7.95
2023-02-23T20:36:35.620Z,7.89
2023-02-23T20:39:02.867Z,7.71
2023-02-23T20:41:31.651Z,7.78
2023-02-23T20:44:01.359Z,7.73
2023-02-23T20:46:30.728Z,7.50
2023-02-23T20:48:59.635Z,7.77
2023-02-23T20:51:27.077Z,7.74
2023-02-23T20:53:54.113Z,7.40
2023-02-23T20:56:22.350Z,7.72
2023-02-23T20:58:50.005Z,7.70
2023-02-23T21:01:23.838Z,7.73
2023-02-23T21:03:57.128Z,7.69
2023-02-23T21:06:28.159Z,7.64
2023-02-23T21:09:05.073Z,7.59
2023-02-23T21:11:32.780Z,7.57
2023-02-23T21:14:00.467Z,7.48
2023-02-23T21:16:32.497Z,7.51
2023-02-23T21:19:05.077Z,7.55
2023-02-23T21:21:40.295Z,7.44
2023-02-23T21:24:15.026Z,7.57
2023-02-23T21:26:42.556Z,7.58
2023-02-23T21:29:11.912Z,7.50
2023-02-23T21:31:42.617Z,7.55
2023-02-23T21:34:18.257Z,7.53
2023-02-23T21:36:45.137Z,7.53
2023-02-23T21:39:17.917Z,7.55
2023-02-23T21:41:44.794Z,7.45
2023-02-23T21:44:11.667Z,7.32
2023-02-23T21:46:38.555Z,7.37
2023-02-23T21:49:09.947Z,7.36
2023-02-23T21:51:37.165Z,7.28
2023-02-23T21:54:09.353Z,7.45
2023-02-23T21:56:36.994Z,7.44
2023-02-23T21:59:06.360Z,7.52
2023-02-23T22:01:36.092Z,7.50
2023-02-23T22:04:07.440Z,7.51
2023-02-23T22:06:39.995Z,7.52
2023-02-23T22:09:11.046Z,7.53
2023-02-23T22:11:43.626Z,7.53
2023-02-23T22:14:10.620Z,7.48
2023-02-23T22:16:41.928Z,7.43
2023-02-23T22:19:11.790Z,7.57
2023-02-23T22:21:42.924Z,7.49
2023-02-23T22:24:15.773Z,7.56
2023-02-23T22:26:54.414Z,7.60
2023-02-23T22:29:23.654Z,7.59
2023-02-23T22:31:51.204Z,7.64
2023-02-23T22:34:20.621Z,7.37
2023-02-23T22:36:48.571Z,7.60
2023-02-23T22:39:18.775Z,7.59
2023-02-23T22:41:47.322Z,7.68
2023-02-23T22:44:20.094Z,7.64
2023-02-23T22:46:49.506Z,7.57
2023-02-23T22:49:20.222Z,7.70
2023-02-23T22:51:47.426Z,7.67
2023-02-23T22:54:14.407Z,7.56
2023-02-23T22:56:47.099Z,7.56
2023-02-23T22:59:17.719Z,7.66
2023-02-23T23:01:44.816Z,7.64
2023-02-23T23:04:11.559Z,7.69
2023-02-23T23:06:47.766Z,7.75
2023-02-23T23:09:18.586Z,7.70
2023-02-23T23:11:45.401Z,7.68
2023-02-23T23:14:12.649Z,7.52
2023-02-23T23:16:48.147Z,7.66
2023-02-23T23:19:18.989Z,7.69
2023-02-23T23:21:46.367Z,7.72
2023-02-23T23:24:13.753Z,7.71
2023-02-23T23:26:41.359Z,7.50
2023-02-23T23:29:11.406Z,7.77
2023-02-23T23:31:39.868Z,7.73
2023-02-23T23:34:09.982Z,7.77
2023-02-23T23:36:53.449Z,7.78
2023-02-23T23:39:23.507Z,7.72
2023-02-23T23:41:50.847Z,7.57
2023-02-23T23:44:29.329Z,7.75
2023-02-23T23:46:57.009Z,7.68
2023-02-23T23:49:27.055Z,7.78
2023-02-23T23:51:57.017Z,7.76
2023-02-23T23:54:30.892Z,7.79
2023-02-23T23:57:06.688Z,7.65
2023-02-23T23:59:35.078Z,7.62
